createdAt,value
2018-06-29T00:01:23.969Z,20.60
2018-06-29T00:05:27.477Z,20.58
2018-06-29T00:09:30.904Z,20.58
2018-06-29T00:13:34.309Z,20.56
2018-06-29T00:17:37.794Z,20.55
2018-06-29T00:21:41.207Z,20.54
2018-06-29T00:25:44.632Z,20.54
2018-06-29T00:29:48.117Z,20.50
2018-06-29T00:33:51.503Z,20.49
2018-06-29T00:37:54.942Z,20.50
2018-06-29T00:41:58.397Z,20.51
2018-06-29T00:46:01.865Z,20.53
2018-06-29T00:50:05.270Z,20.51
2018-06-29T00:54:08.724Z,20.52
2018-06-29T00:58:12.180Z,20.53
2018-06-29T01:02:15.618Z,20.52
2018-06-29T01:06:19.061Z,20.52
2018-06-29T01:10:22.549Z,20.52
2018-06-29T01:14:26.006Z,20.53
2018-06-29T01:18:29.432Z,20.54
2018-06-29T01:22:32.854Z,20.56
2018-06-29T01:26:36.280Z,20.55
2018-06-29T01:30:39.716Z,20.56
2018-06-29T01:34:43.250Z,20.56
2018-06-29T01:38:46.664Z,20.55
2018-06-29T01:42:50.092Z,20.56
2018-06-29T01:46:53.652Z,20.55
2018-06-29T01:50:57.101Z,20.54
2018-06-29T01:55:00.502Z,20.52
2018-06-29T01:59:03.964Z,20.51
2018-06-29T02:03:07.419Z,20.49
2018-06-29T02:07:10.889Z,20.49
2018-06-29T02:11:14.303Z,20.49
2018-06-29T02:15:17.737Z,20.48
2018-06-29T02:19:21.185Z,20.50
2018-06-29T02:23:24.637Z,20.50
2018-06-29T02:27:28.132Z,20.50
2018-06-29T02:31:31.636Z,20.50
2018-06-29T02:35:35.081Z,20.52
2018-06-29T02:39:38.894Z,20.53
2018-06-29T02:43:42.765Z,20.54
2018-06-29T02:47:46.197Z,20.54
2018-06-29T02:51:49.657Z,20.52
2018-06-29T02:55:53.061Z,20.54
2018-06-29T02:59:56.494Z,20.54
2018-06-29T03:04:00.025Z,20.57
2018-06-29T03:08:03.464Z,20.55
2018-06-29T03:12:06.905Z,20.56
2018-06-29T03:16:10.343Z,20.56
2018-06-29T03:20:13.783Z,20.57
2018-06-29T03:24:17.259Z,20.59
2018-06-29T03:28:20.728Z,20.59
2018-06-29T03:32:24.195Z,20.60
2018-06-29T03:36:27.669Z,20.63
2018-06-29T03:40:31.174Z,20.61
2018-06-29T03:44:34.583Z,20.62
2018-06-29T03:48:38.066Z,20.62
2018-06-29T03:52:41.522Z,20.61
2018-06-29T03:56:44.938Z,20.63
2018-06-29T04:00:48.392Z,20.65
2018-06-29T04:04:51.845Z,20.68
2018-06-29T04:08:55.231Z,20.71
2018-06-29T04:12:58.703Z,20.72
2018-06-29T04:17:02.169Z,20.76
2018-06-29T04:21:05.626Z,20.78
2018-06-29T04:25:09.089Z,20.81
2018-06-29T04:29:13.377Z,20.86
2018-06-29T04:33:16.858Z,20.90
2018-06-29T04:37:20.306Z,20.92
2018-06-29T04:41:23.794Z,20.97
2018-06-29T04:45:27.240Z,21.00
2018-06-29T04:49:30.710Z,21.04
2018-06-29T04:53:34.145Z,21.09
2018-06-29T04:57:37.578Z,21.13
2018-06-29T05:01:41.050Z,21.16
2018-06-29T05:05:44.527Z,21.17
2018-06-29T05:09:47.960Z,21.17
2018-06-29T05:13:51.503Z,21.20
2018-06-29T05:17:54.957Z,21.21
2018-06-29T05:21:58.419Z,21.25
2018-06-29T05:26:01.889Z,21.29
2018-06-29T05:30:06.636Z,21.29
2018-06-29T05:34:10.080Z,21.32
2018-06-29T05:38:13.558Z,21.36
2018-06-29T05:42:17.315Z,21.36
2018-06-29T05:46:20.831Z,21.37
2018-06-29T05:50:24.181Z,21.40
2018-06-29T05:54:27.585Z,21.42
2018-06-29T05:58:31.660Z,21.65
2018-06-29T06:02:35.107Z,21.99
2018-06-29T06:06:38.522Z,22.24
2018-06-29T06:10:43.854Z,22.41
2018-06-29T06:14:47.311Z,22.61
2018-06-29T06:18:59.597Z,22.65
2018-06-29T06:23:13.800Z,22.69
2018-06-29T06:27:17.237Z,22.73
2018-06-29T06:31:20.675Z,22.99
2018-06-29T06:35:24.159Z,23.26
2018-06-29T06:39:27.894Z,23.57
2018-06-29T06:43:31.346Z,23.70
2018-06-29T06:47:34.778Z,23.70
2018-06-29T06:51:38.215Z,23.72
2018-06-29T06:55:41.894Z,23.74
2018-06-29T06:59:45.319Z,24.01
2018-06-29T07:03:48.771Z,24.31
2018-06-29T07:07:52.283Z,24.43
2018-06-29T07:11:56.031Z,24.75
2018-06-29T07:15:59.502Z,25.03
2018-06-29T07:20:03.147Z,25.28
2018-06-29T07:24:06.588Z,25.46
2018-06-29T07:28:10.031Z,25.58
2018-06-29T07:32:13.479Z,25.60
2018-06-29T07:36:17.411Z,25.44
2018-06-29T07:40:20.869Z,25.40
2018-06-29T07:44:24.293Z,25.30
2018-06-29T07:48:27.722Z,25.17
2018-06-29T07:52:31.154Z,25.07
2018-06-29T07:56:34.598Z,24.95
2018-06-29T08:00:38.028Z,24.86
2018-06-29T08:04:41.478Z,24.75
2018-06-29T08:08:44.899Z,24.69
2018-06-29T08:12:48.352Z,24.73
2018-06-29T08:16:51.822Z,24.79
2018-06-29T08:20:55.451Z,24.76
2018-06-29T08:25:11.241Z,24.72
2018-06-29T08:29:14.678Z,24.75
2018-06-29T08:33:18.207Z,24.74
2018-06-29T08:37:21.614Z,24.81
2018-06-29T08:41:25.073Z,24.87
2018-06-29T08:45:28.505Z,24.88
2018-06-29T08:49:31.939Z,24.90
2018-06-29T08:53:35.347Z,24.95
2018-06-29T08:57:38.753Z,24.94
2018-06-29T09:01:48.607Z,24.92
2018-06-29T09:05:52.014Z,24.87
2018-06-29T09:09:55.425Z,24.79
2018-06-29T09:13:58.843Z,24.69
2018-06-29T09:18:02.311Z,24.58
2018-06-29T09:22:05.841Z,24.53
2018-06-29T09:26:09.265Z,24.51
2018-06-29T09:30:17.842Z,24.53
2018-06-29T09:34:21.327Z,24.55
2018-06-29T09:38:24.732Z,24.51
2018-06-29T09:42:28.239Z,24.43
2018-06-29T09:46:31.588Z,24.39
2018-06-29T09:50:35.024Z,24.37
2018-06-29T09:54:38.731Z,24.35
2018-06-29T09:58:42.249Z,24.42
2018-06-29T10:02:46.709Z,24.54
2018-06-29T10:06:50.147Z,24.69
2018-06-29T10:10:53.578Z,24.78
2018-06-29T10:14:57.080Z,24.85
2018-06-29T10:19:00.953Z,24.91
2018-06-29T10:23:04.330Z,24.97
2018-06-29T10:27:07.761Z,24.98
2018-06-29T10:31:11.391Z,24.97
2018-06-29T10:35:14.836Z,24.95
2018-06-29T10:39:18.237Z,24.95
2018-06-29T10:43:21.645Z,24.94
2018-06-29T10:47:25.088Z,24.95
2018-06-29T10:51:28.539Z,25.02
2018-06-29T10:55:31.979Z,25.06
2018-06-29T10:59:35.516Z,25.07
2018-06-29T11:03:38.959Z,25.12
2018-06-29T11:07:42.415Z,25.37
2018-06-29T11:11:45.837Z,25.65
2018-06-29T11:15:50.253Z,25.78
2018-06-29T11:19:54.177Z,25.85
2018-06-29T11:23:57.586Z,25.89
2018-06-29T11:28:01.017Z,25.90
2018-06-29T11:32:04.451Z,25.90
2018-06-29T11:36:08.143Z,25.97
2018-06-29T11:40:11.602Z,26.03
2018-06-29T11:44:15.154Z,26.05
2018-06-29T11:48:18.636Z,26.09
2018-06-29T11:52:22.024Z,26.15
2018-06-29T11:56:25.449Z,26.25
2018-06-29T12:00:28.877Z,26.33
2018-06-29T12:04:32.314Z,26.40
2018-06-29T12:08:35.825Z,26.42
2018-06-29T12:12:39.223Z,26.48
2018-06-29T12:16:42.761Z,26.52
2018-06-29T12:20:46.359Z,26.55
2018-06-29T12:24:51.015Z,26.54
2018-06-29T12:28:54.476Z,26.47
2018-06-29T12:32:57.894Z,26.41
2018-06-29T12:37:01.359Z,26.30
2018-06-29T12:41:04.830Z,26.23
2018-06-29T12:45:08.341Z,26.17
2018-06-29T12:49:11.767Z,26.10
2018-06-29T12:53:15.183Z,26.06
2018-06-29T12:57:18.643Z,25.98
2018-06-29T13:01:22.090Z,25.91
2018-06-29T13:05:25.644Z,25.86
2018-06-29T13:09:29.014Z,25.80
2018-06-29T13:13:32.490Z,25.77
2018-06-29T13:17:35.901Z,25.77
2018-06-29T13:21:39.330Z,25.76
2018-06-29T13:25:42.752Z,25.74
2018-06-29T13:29:46.163Z,25.77
2018-06-29T13:33:54.966Z,25.78
2018-06-29T13:37:58.385Z,25.79
2018-06-29T13:42:01.857Z,25.82
2018-06-29T13:46:05.303Z,25.82
2018-06-29T13:50:09.941Z,25.84
2018-06-29T13:54:13.394Z,25.83
2018-06-29T13:58:16.840Z,25.80
2018-06-29T14:02:20.296Z,25.82
2018-06-29T14:06:23.724Z,25.86
2018-06-29T14:10:27.147Z,25.88
2018-06-29T14:14:30.867Z,25.93
2018-06-29T14:18:34.301Z,25.98
2018-06-29T14:22:38.352Z,26.02
2018-06-29T14:26:41.855Z,26.09
2018-06-29T14:30:47.237Z,26.14
2018-06-29T14:34:51.093Z,26.21
2018-06-29T14:38:54.516Z,26.31
2018-06-29T14:42:57.959Z,26.34
2018-06-29T14:47:01.381Z,26.34
2018-06-29T14:51:04.806Z,26.30
2018-06-29T14:55:08.219Z,26.27
2018-06-29T14:59:11.638Z,26.27
2018-06-29T15:03:15.097Z,26.26
2018-06-29T15:07:18.667Z,26.22
2018-06-29T15:11:22.096Z,26.16
2018-06-29T15:15:25.789Z,26.14
2018-06-29T15:19:29.225Z,26.09
2018-06-29T15:23:32.707Z,26.09
2018-06-29T15:27:36.346Z,26.14
2018-06-29T15:31:40.279Z,26.22
2018-06-29T15:35:43.736Z,26.28
2018-06-29T15:39:47.244Z,26.28
2018-06-29T15:43:50.782Z,26.30
2018-06-29T15:47:54.417Z,26.27
2018-06-29T15:51:57.849Z,26.26
2018-06-29T15:56:01.261Z,26.21
2018-06-29T16:00:06.355Z,26.20
2018-06-29T16:04:10.712Z,26.17
2018-06-29T16:08:14.178Z,26.16
2018-06-29T16:12:17.796Z,26.13
2018-06-29T16:16:21.170Z,26.11
2018-06-29T16:20:24.572Z,26.12
2018-06-29T16:24:28.003Z,26.14
2018-06-29T16:28:31.521Z,26.15
2018-06-29T16:32:35.001Z,26.15
2018-06-29T16:36:38.433Z,26.14
2018-06-29T16:40:42.029Z,26.11
2018-06-29T16:44:45.692Z,26.08
2018-06-29T16:48:49.034Z,26.07
2018-06-29T16:52:52.580Z,26.09
2018-06-29T16:56:56.014Z,26.12
2018-06-29T17:00:59.485Z,26.14
2018-06-29T17:05:02.876Z,26.16
2018-06-29T17:09:08.331Z,26.18
2018-06-29T17:13:11.792Z,26.20
2018-06-29T17:17:15.279Z,26.20
2018-06-29T17:21:19.012Z,26.23
2018-06-29T17:25:22.492Z,26.23
2018-06-29T17:29:26.005Z,26.23
2018-06-29T17:33:32.052Z,26.23
2018-06-29T17:37:32.910Z,26.24
2018-06-29T17:41:36.329Z,26.24
2018-06-29T17:45:39.830Z,26.21
2018-06-29T17:49:43.443Z,26.14
2018-06-29T17:53:46.888Z,26.09
2018-06-29T17:57:50.317Z,26.06
2018-06-29T18:01:53.836Z,25.99
2018-06-29T18:05:57.257Z,25.93
2018-06-29T18:10:00.731Z,25.88
2018-06-29T18:14:04.202Z,25.82
2018-06-29T18:18:07.653Z,25.74
2018-06-29T18:22:11.121Z,25.68
2018-06-29T18:26:14.546Z,25.65
2018-06-29T18:30:17.978Z,25.59
2018-06-29T18:34:21.480Z,25.56
2018-06-29T18:38:24.926Z,25.53
2018-06-29T18:42:28.454Z,25.48
2018-06-29T18:46:32.130Z,25.44
2018-06-29T18:50:35.616Z,25.37
2018-06-29T18:54:39.106Z,25.30
2018-06-29T18:58:42.880Z,25.22
2018-06-29T19:02:46.525Z,25.17
2018-06-29T19:06:49.965Z,25.11
2018-06-29T19:10:53.385Z,25.08
2018-06-29T19:14:56.816Z,25.06
2018-06-29T19:19:00.300Z,25.05
2018-06-29T19:23:03.759Z,25.02
2018-06-29T19:27:07.306Z,24.94
2018-06-29T19:31:10.806Z,24.88
2018-06-29T19:35:14.198Z,24.85
2018-06-29T19:39:17.740Z,24.80
2018-06-29T19:43:21.178Z,24.75
2018-06-29T19:47:24.601Z,24.71
2018-06-29T19:51:28.753Z,24.66
2018-06-29T19:55:32.293Z,24.64
2018-06-29T19:59:35.721Z,24.61
2018-06-29T20:03:39.158Z,24.56
2018-06-29T20:07:43.582Z,24.49
2018-06-29T20:11:46.991Z,24.42
2018-06-29T20:15:52.994Z,24.36
2018-06-29T20:19:57.370Z,24.29
2018-06-29T20:24:00.940Z,24.21
2018-06-29T20:28:04.786Z,24.13
2018-06-29T20:32:09.239Z,24.11
2018-06-29T20:36:12.645Z,24.08
2018-06-29T20:40:16.360Z,24.01
2018-06-29T20:44:19.851Z,23.96
2018-06-29T20:48:23.277Z,23.91
2018-06-29T20:52:26.928Z,23.86
2018-06-29T20:56:30.382Z,23.78
2018-06-29T21:00:33.816Z,23.73
2018-06-29T21:04:37.308Z,23.66
2018-06-29T21:08:41.123Z,23.62
2018-06-29T21:12:44.562Z,23.60
2018-06-29T21:16:47.978Z,23.54
2018-06-29T21:20:51.382Z,23.50
2018-06-29T21:24:54.874Z,23.45
2018-06-29T21:28:58.337Z,23.38
2018-06-29T21:33:01.851Z,23.35
2018-06-29T21:37:05.621Z,23.30
2018-06-29T21:41:09.034Z,23.29
2018-06-29T21:45:12.764Z,23.25
2018-06-29T21:49:16.188Z,23.24
2018-06-29T21:53:19.617Z,23.22
2018-06-29T21:57:23.155Z,23.20
2018-06-29T22:01:26.788Z,23.20
2018-06-29T22:05:30.244Z,23.22
2018-06-29T22:09:33.687Z,23.21
2018-06-29T22:13:37.133Z,23.21
2018-06-29T22:17:40.548Z,23.21
2018-06-29T22:21:43.992Z,23.21
2018-06-29T22:25:47.411Z,23.20
2018-06-29T22:29:50.866Z,23.17
2018-06-29T22:33:54.302Z,23.15
2018-06-29T22:37:57.808Z,23.13
2018-06-29T22:42:01.204Z,23.11
2018-06-29T22:46:04.666Z,23.09
2018-06-29T22:50:08.152Z,23.05
2018-06-29T22:54:11.603Z,23.01
2018-06-29T22:58:14.997Z,22.96
2018-06-29T23:02:18.476Z,22.92
2018-06-29T23:06:22.643Z,22.90
2018-06-29T23:10:26.058Z,22.87
2018-06-29T23:14:29.477Z,22.85
2018-06-29T23:18:32.878Z,22.82
2018-06-29T23:22:36.356Z,22.78
2018-06-29T23:26:39.771Z,22.73
2018-06-29T23:30:43.246Z,22.66
2018-06-29T23:34:46.653Z,22.58
2018-06-29T23:38:50.085Z,22.51
2018-06-29T23:42:53.530Z,22.46
2018-06-29T23:46:56.963Z,22.44
2018-06-29T23:51:00.388Z,22.40
2018-06-29T23:55:03.849Z,22.36
2018-06-29T23:59:07.284Z,22.33
